sensor_id;sensor_type;location;lat;lon;timestamp;P1;durP1;ratioP1;P2;durP2;ratioP2
59310;SDS011;45078;51.654;21.250;2023-10-08T00:00:25;4.35;;;1.50;;
59310;SDS011;45078;51.654;21.250;2023-10-08T00:03:10;7.28;;;1.58;;
59310;SDS011;45078;51.654;21.250;2023-10-08T00:05:36;4.13;;;1.30;;
59310;SDS011;45078;51.654;21.250;2023-10-08T00:08:02;5.70;;;1.77;;
59310;SDS011;45078;51.654;21.250;2023-10-08T00:10:33;3.10;;;1.40;;
59310;SDS011;45078;51.654;21.250;2023-10-08T00:13:05;3.03;;;1.60;;
59310;SDS011;45078;51.654;21.250;2023-10-08T00:15:37;5.20;;;1.88;;
59310;SDS011;45078;51.654;21.250;2023-10-08T00:18:09;6.03;;;1.52;;
59310;SDS011;45078;51.654;21.250;2023-10-08T00:20:36;4.20;;;1.48;;
59310;SDS011;45078;51.654;21.250;2023-10-08T00:23:35;5.85;;;1.85;;
59310;SDS011;45078;51.654;21.250;2023-10-08T00:26:24;5.80;;;1.90;;
59310;SDS011;45078;51.654;21.250;2023-10-08T00:28:59;3.80;;;2.08;;
59310;SDS011;45078;51.654;21.250;2023-10-08T00:31:31;4.82;;;2.10;;
59310;SDS011;45078;51.654;21.250;2023-10-08T00:34:02;4.32;;;2.20;;
59310;SDS011;45078;51.654;21.250;2023-10-08T00:36:33;5.13;;;2.15;;
59310;SDS011;45078;51.654;21.250;2023-10-08T00:38:59;6.10;;;2.25;;
59310;SDS011;45078;51.654;21.250;2023-10-08T00:41:25;9.48;;;2.00;;
59310;SDS011;45078;51.654;21.250;2023-10-08T00:43:57;5.63;;;1.97;;
59310;SDS011;45078;51.654;21.250;2023-10-08T00:46:26;7.13;;;2.35;;
59310;SDS011;45078;51.654;21.250;2023-10-08T00:48:56;7.30;;;2.33;;
59310;SDS011;45078;51.654;21.250;2023-10-08T00:51:28;4.10;;;2.17;;
59310;SDS011;45078;51.654;21.250;2023-10-08T00:54:05;7.55;;;2.13;;
59310;SDS011;45078;51.654;21.250;2023-10-08T00:56:33;4.00;;;1.75;;
59310;SDS011;45078;51.654;21.250;2023-10-08T00:59:22;4.15;;;2.00;;
59310;SDS011;45078;51.654;21.250;2023-10-08T01:01:49;3.30;;;1.77;;
59310;SDS011;45078;51.654;21.250;2023-10-08T01:04:24;6.35;;;2.03;;
59310;SDS011;45078;51.654;21.250;2023-10-08T01:06:53;3.88;;;1.92;;
59310;SDS011;45078;51.654;21.250;2023-10-08T01:09:24;5.15;;;2.35;;
59310;SDS011;45078;51.654;21.250;2023-10-08T01:12:33;9.30;;;2.40;;
59310;SDS011;45078;51.654;21.250;2023-10-08T01:14:57;5.70;;;1.95;;
59310;SDS011;45078;51.654;21.250;2023-10-08T01:17:30;3.97;;;2.03;;
59310;SDS011;45078;51.654;21.250;2023-10-08T01:19:57;5.13;;;1.70;;
59310;SDS011;45078;51.654;21.250;2023-10-08T01:22:44;4.03;;;2.25;;
59310;SDS011;45078;51.654;21.250;2023-10-08T01:25:09;7.10;;;2.20;;
59310;SDS011;45078;51.654;21.250;2023-10-08T01:27:35;4.40;;;2.00;;
59310;SDS011;45078;51.654;21.250;2023-10-08T01:30:02;5.10;;;1.73;;
59310;SDS011;45078;51.654;21.250;2023-10-08T01:32:45;3.83;;;1.98;;
59310;SDS011;45078;51.654;21.250;2023-10-08T01:35:11;5.47;;;1.65;;
59310;SDS011;45078;51.654;21.250;2023-10-08T01:37:48;3.90;;;1.40;;
59310;SDS011;45078;51.654;21.250;2023-10-08T01:40:15;2.20;;;1.48;;
59310;SDS011;45078;51.654;21.250;2023-10-08T01:42:41;2.75;;;1.15;;
59310;SDS011;45078;51.654;21.250;2023-10-08T01:45:07;3.70;;;1.40;;
59310;SDS011;45078;51.654;21.250;2023-10-08T01:47:35;3.78;;;1.27;;
59310;SDS011;45078;51.654;21.250;2023-10-08T01:50:01;3.00;;;1.27;;
59310;SDS011;45078;51.654;21.250;2023-10-08T01:52:31;3.70;;;1.55;;
59310;SDS011;45078;51.654;21.250;2023-10-08T01:54:59;1.85;;;1.20;;
59310;SDS011;45078;51.654;21.250;2023-10-08T01:57:25;5.38;;;1.00;;
59310;SDS011;45078;51.654;21.250;2023-10-08T01:59:50;2.20;;;1.23;;
59310;SDS011;45078;51.654;21.250;2023-10-08T02:02:16;2.33;;;1.10;;
59310;SDS011;45078;51.654;21.250;2023-10-08T02:04:42;4.20;;;1.00;;
59310;SDS011;45078;51.654;21.250;2023-10-08T02:07:09;3.50;;;1.35;;
59310;SDS011;45078;51.654;21.250;2023-10-08T02:09:38;1.95;;;1.00;;
59310;SDS011;45078;51.654;21.250;2023-10-08T02:12:04;3.95;;;1.00;;
59310;SDS011;45078;51.654;21.250;2023-10-08T02:14:30;3.88;;;0.90;;
59310;SDS011;45078;51.654;21.250;2023-10-08T02:16:57;7.28;;;1.05;;
59310;SDS011;45078;51.654;21.250;2023-10-08T02:19:26;1.73;;;0.90;;
59310;SDS011;45078;51.654;21.250;2023-10-08T02:21:53;2.63;;;1.20;;
59310;SDS011;45078;51.654;21.250;2023-10-08T02:24:20;2.25;;;1.17;;
59310;SDS011;45078;51.654;21.250;2023-10-08T02:26:47;6.75;;;2.97;;
59310;SDS011;45078;51.654;21.250;2023-10-08T02:29:13;5.78;;;2.00;;
59310;SDS011;45078;51.654;21.250;2023-10-08T02:31:40;4.32;;;1.30;;
59310;SDS011;45078;51.654;21.250;2023-10-08T02:34:06;2.28;;;0.90;;
59310;SDS011;45078;51.654;21.250;2023-10-08T02:36:37;3.22;;;1.48;;
59310;SDS011;45078;51.654;21.250;2023-10-08T02:39:05;3.10;;;1.05;;
59310;SDS011;45078;51.654;21.250;2023-10-08T02:41:50;4.18;;;1.15;;
59310;SDS011;45078;51.654;21.250;2023-10-08T02:44:16;6.45;;;1.77;;
59310;SDS011;45078;51.654;21.250;2023-10-08T02:46:42;4.50;;;1.58;;
59310;SDS011;45078;51.654;21.250;2023-10-08T02:49:18;5.53;;;1.40;;
59310;SDS011;45078;51.654;21.250;2023-10-08T02:51:46;3.17;;;1.20;;
59310;SDS011;45078;51.654;21.250;2023-10-08T02:54:15;4.82;;;1.23;;
59310;SDS011;45078;51.654;21.250;2023-10-08T02:56:52;3.25;;;1.30;;
59310;SDS011;45078;51.654;21.250;2023-10-08T02:59:23;4.65;;;1.60;;
59310;SDS011;45078;51.654;21.250;2023-10-08T03:02:08;4.18;;;1.38;;
59310;SDS011;45078;51.654;21.250;2023-10-08T03:04:44;4.65;;;1.20;;
59310;SDS011;45078;51.654;21.250;2023-10-08T03:07:14;2.17;;;0.90;;
59310;SDS011;45078;51.654;21.250;2023-10-08T03:10:06;4.03;;;0.82;;
59310;SDS011;45078;51.654;21.250;2023-10-08T03:12:42;1.63;;;0.90;;
59310;SDS011;45078;51.654;21.250;2023-10-08T03:15:08;2.60;;;0.93;;
59310;SDS011;45078;51.654;21.250;2023-10-08T03:17:52;2.08;;;0.95;;
59310;SDS011;45078;51.654;21.250;2023-10-08T03:20:22;2.00;;;1.08;;
59310;SDS011;45078;51.654;21.250;2023-10-08T03:23:15;2.92;;;1.10;;
59310;SDS011;45078;51.654;21.250;2023-10-08T03:25:58;7.32;;;1.20;;
59310;SDS011;45078;51.654;21.250;2023-10-08T03:28:42;4.15;;;1.45;;
59310;SDS011;45078;51.654;21.250;2023-10-08T03:31:08;2.85;;;1.08;;
59310;SDS011;45078;51.654;21.250;2023-10-08T03:33:42;2.03;;;1.20;;
59310;SDS011;45078;51.654;21.250;2023-10-08T03:36:08;2.92;;;1.30;;
59310;SDS011;45078;51.654;21.250;2023-10-08T03:38:39;5.45;;;1.75;;
59310;SDS011;45078;51.654;21.250;2023-10-08T03:41:14;4.03;;;1.75;;
59310;SDS011;45078;51.654;21.250;2023-10-08T03:43:44;4.50;;;1.83;;
59310;SDS011;45078;51.654;21.250;2023-10-08T03:46:40;3.55;;;1.60;;
59310;SDS011;45078;51.654;21.250;2023-10-08T03:49:09;4.22;;;2.05;;
59310;SDS011;45078;51.654;21.250;2023-10-08T03:51:47;6.35;;;2.53;;
59310;SDS011;45078;51.654;21.250;2023-10-08T03:54:16;6.57;;;2.47;;
59310;SDS011;45078;51.654;21.250;2023-10-08T03:56:44;4.65;;;2.50;;
59310;SDS011;45078;51.654;21.250;2023-10-08T03:59:11;4.40;;;2.53;;
59310;SDS011;45078;51.654;21.250;2023-10-08T04:01:41;6.80;;;2.83;;
59310;SDS011;45078;51.654;21.250;2023-10-08T04:04:07;6.65;;;2.60;;
59310;SDS011;45078;51.654;21.250;2023-10-08T04:06:39;8.60;;;2.67;;
59310;SDS011;45078;51.654;21.250;2023-10-08T04:09:12;5.68;;;2.40;;
59310;SDS011;45078;51.654;21.250;2023-10-08T04:11:43;6.00;;;2.67;;
59310;SDS011;45078;51.654;21.250;2023-10-08T04:14:24;6.18;;;2.35;;
59310;SDS011;45078;51.654;21.250;2023-10-08T04:16:51;5.97;;;2.85;;
59310;SDS011;45078;51.654;21.250;2023-10-08T04:19:20;7.90;;;3.47;;
59310;SDS011;45078;51.654;21.250;2023-10-08T04:21:54;10.63;;;3.90;;
59310;SDS011;45078;51.654;21.250;2023-10-08T04:24:21;12.35;;;3.75;;
59310;SDS011;45078;51.654;21.250;2023-10-08T04:26:53;16.20;;;3.97;;
59310;SDS011;45078;51.654;21.250;2023-10-08T04:29:22;10.10;;;4.00;;
59310;SDS011;45078;51.654;21.250;2023-10-08T04:31:49;8.88;;;4.15;;
59310;SDS011;45078;51.654;21.250;2023-10-08T04:34:27;9.00;;;4.10;;
59310;SDS011;45078;51.654;21.250;2023-10-08T04:36:53;10.95;;;3.70;;
59310;SDS011;45078;51.654;21.250;2023-10-08T04:39:22;12.25;;;4.10;;
59310;SDS011;45078;51.654;21.250;2023-10-08T04:41:56;12.68;;;4.05;;
59310;SDS011;45078;51.654;21.250;2023-10-08T04:44:34;12.50;;;4.30;;
59310;SDS011;45078;51.654;21.250;2023-10-08T04:47:03;8.88;;;4.32;;
59310;SDS011;45078;51.654;21.250;2023-10-08T04:49:30;13.23;;;4.72;;
59310;SDS011;45078;51.654;21.250;2023-10-08T04:54:25;12.85;;;4.88;;
59310;SDS011;45078;51.654;21.250;2023-10-08T04:56:57;14.35;;;5.28;;
59310;SDS011;45078;51.654;21.250;2023-10-08T04:59:25;16.38;;;6.07;;
59310;SDS011;45078;51.654;21.250;2023-10-08T05:01:58;12.25;;;5.50;;
59310;SDS011;45078;51.654;21.250;2023-10-08T05:04:43;12.13;;;5.18;;
59310;SDS011;45078;51.654;21.250;2023-10-08T05:07:20;9.85;;;5.55;;
59310;SDS011;45078;51.654;21.250;2023-10-08T05:10:06;11.23;;;5.20;;
59310;SDS011;45078;51.654;21.250;2023-10-08T05:12:32;15.68;;;5.28;;
59310;SDS011;45078;51.654;21.250;2023-10-08T05:14:58;13.13;;;5.38;;
59310;SDS011;45078;51.654;21.250;2023-10-08T05:17:39;13.40;;;5.68;;
59310;SDS011;45078;51.654;21.250;2023-10-08T05:20:15;12.70;;;4.70;;
59310;SDS011;45078;51.654;21.250;2023-10-08T05:22:59;17.95;;;5.30;;
59310;SDS011;45078;51.654;21.250;2023-10-08T05:25:45;7.85;;;4.18;;
59310;SDS011;45078;51.654;21.250;2023-10-08T05:28:30;8.43;;;4.68;;
59310;SDS011;45078;51.654;21.250;2023-10-08T05:31:06;13.57;;;4.88;;
59310;SDS011;45078;51.654;21.250;2023-10-08T05:33:38;11.27;;;4.30;;
59310;SDS011;45078;51.654;21.250;2023-10-08T05:36:22;9.05;;;4.03;;
59310;SDS011;45078;51.654;21.250;2023-10-08T05:39:20;9.65;;;4.15;;
59310;SDS011;45078;51.654;21.250;2023-10-08T05:41:49;13.63;;;4.35;;
59310;SDS011;45078;51.654;21.250;2023-10-08T05:44:30;8.57;;;4.85;;
59310;SDS011;45078;51.654;21.250;2023-10-08T05:47:05;7.45;;;3.63;;
59310;SDS011;45078;51.654;21.250;2023-10-08T05:49:37;7.22;;;3.22;;
59310;SDS011;45078;51.654;21.250;2023-10-08T05:52:07;10.07;;;3.67;;
59310;SDS011;45078;51.654;21.250;2023-10-08T05:54:35;9.30;;;3.63;;
59310;SDS011;45078;51.654;21.250;2023-10-08T05:57:12;9.48;;;3.60;;
59310;SDS011;45078;51.654;21.250;2023-10-08T05:59:38;11.10;;;2.97;;
59310;SDS011;45078;51.654;21.250;2023-10-08T06:04:58;5.65;;;2.65;;
59310;SDS011;45078;51.654;21.250;2023-10-08T06:07:42;8.07;;;2.60;;
59310;SDS011;45078;51.654;21.250;2023-10-08T06:10:17;6.75;;;2.50;;
59310;SDS011;45078;51.654;21.250;2023-10-08T06:15:38;5.35;;;2.13;;
59310;SDS011;45078;51.654;21.250;2023-10-08T06:18:23;6.32;;;1.88;;
59310;SDS011;45078;51.654;21.250;2023-10-08T06:23:20;11.10;;;2.28;;
59310;SDS011;45078;51.654;21.250;2023-10-08T06:25:48;3.78;;;1.70;;
59310;SDS011;45078;51.654;21.250;2023-10-08T06:28:22;3.80;;;1.58;;
59310;SDS011;45078;51.654;21.250;2023-10-08T06:30:52;3.75;;;1.50;;
59310;SDS011;45078;51.654;21.250;2023-10-08T06:33:19;4.95;;;2.00;;
59310;SDS011;45078;51.654;21.250;2023-10-08T06:35:50;4.95;;;1.55;;
59310;SDS011;45078;51.654;21.250;2023-10-08T06:38:31;5.07;;;1.77;;
59310;SDS011;45078;51.654;21.250;2023-10-08T06:41:01;4.95;;;1.25;;
59310;SDS011;45078;51.654;21.250;2023-10-08T06:43:48;5.63;;;1.60;;
59310;SDS011;45078;51.654;21.250;2023-10-08T06:46:18;2.75;;;1.55;;
59310;SDS011;45078;51.654;21.250;2023-10-08T06:48:49;4.35;;;1.23;;
59310;SDS011;45078;51.654;21.250;2023-10-08T06:51:14;4.30;;;1.30;;
59310;SDS011;45078;51.654;21.250;2023-10-08T06:53:43;5.60;;;1.73;;
59310;SDS011;45078;51.654;21.250;2023-10-08T06:56:13;4.93;;;1.27;;
59310;SDS011;45078;51.654;21.250;2023-10-08T06:58:40;2.97;;;1.30;;
59310;SDS011;45078;51.654;21.250;2023-10-08T07:01:21;2.17;;;0.90;;
59310;SDS011;45078;51.654;21.250;2023-10-08T07:03:50;4.68;;;1.55;;
59310;SDS011;45078;51.654;21.250;2023-10-08T07:06:17;3.33;;;1.20;;
59310;SDS011;45078;51.654;21.250;2023-10-08T07:08:56;2.47;;;1.15;;
59310;SDS011;45078;51.654;21.250;2023-10-08T07:11:25;3.08;;;1.20;;
59310;SDS011;45078;51.654;21.250;2023-10-08T07:13:54;2.85;;;1.23;;
59310;SDS011;45078;51.654;21.250;2023-10-08T07:16:20;3.20;;;0.90;;
59310;SDS011;45078;51.654;21.250;2023-10-08T07:18:46;3.17;;;0.90;;
59310;SDS011;45078;51.654;21.250;2023-10-08T07:21:17;2.90;;;0.90;;
59310;SDS011;45078;51.654;21.250;2023-10-08T07:23:48;4.03;;;1.50;;
59310;SDS011;45078;51.654;21.250;2023-10-08T07:26:28;3.70;;;0.90;;
59310;SDS011;45078;51.654;21.250;2023-10-08T07:29:04;1.30;;;0.70;;
59310;SDS011;45078;51.654;21.250;2023-10-08T07:31:33;1.60;;;0.60;;
59310;SDS011;45078;51.654;21.250;2023-10-08T07:34:01;1.73;;;0.80;;
59310;SDS011;45078;51.654;21.250;2023-10-08T07:36:48;4.00;;;1.05;;
59310;SDS011;45078;51.654;21.250;2023-10-08T07:39:15;2.58;;;0.50;;
59310;SDS011;45078;51.654;21.250;2023-10-08T07:41:57;2.88;;;0.80;;
59310;SDS011;45078;51.654;21.250;2023-10-08T07:44:24;1.35;;;0.98;;
59310;SDS011;45078;51.654;21.250;2023-10-08T07:46:53;2.95;;;0.93;;
59310;SDS011;45078;51.654;21.250;2023-10-08T07:49:22;1.45;;;0.75;;
59310;SDS011;45078;51.654;21.250;2023-10-08T07:51:50;1.00;;;0.68;;
59310;SDS011;45078;51.654;21.250;2023-10-08T07:54:20;1.98;;;0.65;;
59310;SDS011;45078;51.654;21.250;2023-10-08T07:56:48;5.20;;;0.70;;
59310;SDS011;45078;51.654;21.250;2023-10-08T07:59:16;2.00;;;0.60;;
59310;SDS011;45078;51.654;21.250;2023-10-08T08:01:43;0.90;;;0.60;;
59310;SDS011;45078;51.654;21.250;2023-10-08T08:04:11;1.60;;;0.63;;
59310;SDS011;45078;51.654;21.250;2023-10-08T08:06:50;0.90;;;0.60;;
59310;SDS011;45078;51.654;21.250;2023-10-08T08:09:17;1.70;;;0.60;;
59310;SDS011;45078;51.654;21.250;2023-10-08T08:11:45;1.42;;;0.70;;
59310;SDS011;45078;51.654;21.250;2023-10-08T08:14:12;1.70;;;0.60;;
59310;SDS011;45078;51.654;21.250;2023-10-08T08:16:42;1.65;;;0.73;;
59310;SDS011;45078;51.654;21.250;2023-10-08T08:19:11;10.50;;;3.15;;
59310;SDS011;45078;51.654;21.250;2023-10-08T08:21:38;18.02;;;6.63;;
59310;SDS011;45078;51.654;21.250;2023-10-08T08:24:10;11.43;;;4.00;;
59310;SDS011;45078;51.654;21.250;2023-10-08T08:26:37;19.33;;;6.60;;
59310;SDS011;45078;51.654;21.250;2023-10-08T08:29:25;1.80;;;0.63;;
59310;SDS011;45078;51.654;21.250;2023-10-08T08:31:51;1.10;;;0.50;;
59310;SDS011;45078;51.654;21.250;2023-10-08T08:34:18;1.25;;;0.60;;
59310;SDS011;45078;51.654;21.250;2023-10-08T08:36:47;1.50;;;0.60;;
59310;SDS011;45078;51.654;21.250;2023-10-08T08:39:14;2.17;;;1.58;;
59310;SDS011;45078;51.654;21.250;2023-10-08T08:42:00;2.15;;;0.70;;
59310;SDS011;45078;51.654;21.250;2023-10-08T08:44:35;2.92;;;0.60;;
59310;SDS011;45078;51.654;21.250;2023-10-08T08:47:09;2.50;;;0.57;;
59310;SDS011;45078;51.654;21.250;2023-10-08T08:49:42;1.80;;;0.70;;
59310;SDS011;45078;51.654;21.250;2023-10-08T08:52:10;1.88;;;0.85;;
59310;SDS011;45078;51.654;21.250;2023-10-08T08:54:37;6.78;;;0.50;;
59310;SDS011;45078;51.654;21.250;2023-10-08T08:57:03;0.75;;;0.40;;
59310;SDS011;45078;51.654;21.250;2023-10-08T08:59:31;1.10;;;0.60;;
59310;SDS011;45078;51.654;21.250;2023-10-08T09:01:57;1.00;;;0.50;;
59310;SDS011;45078;51.654;21.250;2023-10-08T09:04:31;0.60;;;0.40;;
59310;SDS011;45078;51.654;21.250;2023-10-08T09:07:01;1.33;;;0.50;;
59310;SDS011;45078;51.654;21.250;2023-10-08T09:09:35;1.95;;;0.55;;
59310;SDS011;45078;51.654;21.250;2023-10-08T09:12:04;3.30;;;0.50;;
59310;SDS011;45078;51.654;21.250;2023-10-08T09:14:31;0.90;;;0.50;;
59310;SDS011;45078;51.654;21.250;2023-10-08T09:16:57;2.40;;;0.85;;
59310;SDS011;45078;51.654;21.250;2023-10-08T09:19:24;1.40;;;0.52;;
59310;SDS011;45078;51.654;21.250;2023-10-08T09:24:34;1.77;;;0.70;;
59310;SDS011;45078;51.654;21.250;2023-10-08T09:27:04;1.92;;;0.60;;
59310;SDS011;45078;51.654;21.250;2023-10-08T09:29:37;1.08;;;0.52;;
59310;SDS011;45078;51.654;21.250;2023-10-08T09:32:06;2.50;;;0.70;;
59310;SDS011;45078;51.654;21.250;2023-10-08T09:34:33;2.33;;;0.70;;
59310;SDS011;45078;51.654;21.250;2023-10-08T09:36:59;3.83;;;0.88;;
59310;SDS011;45078;51.654;21.250;2023-10-08T09:39:26;2.90;;;0.60;;
59310;SDS011;45078;51.654;21.250;2023-10-08T09:41:54;1.45;;;0.60;;
59310;SDS011;45078;51.654;21.250;2023-10-08T09:44:21;1.27;;;0.60;;
59310;SDS011;45078;51.654;21.250;2023-10-08T09:46:55;1.23;;;0.60;;
59310;SDS011;45078;51.654;21.250;2023-10-08T09:49:31;9.00;;;1.10;;
59310;SDS011;45078;51.654;21.250;2023-10-08T09:52:02;2.35;;;0.70;;
59310;SDS011;45078;51.654;21.250;2023-10-08T09:54:31;1.52;;;0.63;;
59310;SDS011;45078;51.654;21.250;2023-10-08T09:57:07;1.67;;;0.60;;
59310;SDS011;45078;51.654;21.250;2023-10-08T09:59:35;2.13;;;0.45;;
59310;SDS011;45078;51.654;21.250;2023-10-08T10:02:03;2.97;;;0.60;;
59310;SDS011;45078;51.654;21.250;2023-10-08T10:04:31;3.13;;;0.70;;
59310;SDS011;45078;51.654;21.250;2023-10-08T10:06:57;1.20;;;0.57;;
59310;SDS011;45078;51.654;21.250;2023-10-08T10:09:23;0.80;;;0.50;;
59310;SDS011;45078;51.654;21.250;2023-10-08T10:11:51;4.05;;;0.95;;
59310;SDS011;45078;51.654;21.250;2023-10-08T10:14:18;2.95;;;0.88;;
59310;SDS011;45078;51.654;21.250;2023-10-08T10:19:49;2.20;;;0.60;;
59310;SDS011;45078;51.654;21.250;2023-10-08T10:22:34;1.77;;;0.57;;
59310;SDS011;45078;51.654;21.250;2023-10-08T10:25:03;1.23;;;0.55;;
59310;SDS011;45078;51.654;21.250;2023-10-08T10:28:25;1.23;;;0.60;;
59310;SDS011;45078;51.654;21.250;2023-10-08T10:30:25;1.52;;;0.65;;
59310;SDS011;45078;51.654;21.250;2023-10-08T10:32:53;1.65;;;0.60;;
59310;SDS011;45078;51.654;21.250;2023-10-08T10:35:19;3.63;;;0.75;;
59310;SDS011;45078;51.654;21.250;2023-10-08T10:37:45;0.95;;;0.50;;
59310;SDS011;45078;51.654;21.250;2023-10-08T10:40:24;0.82;;;0.60;;
59310;SDS011;45078;51.654;21.250;2023-10-08T10:43:07;1.83;;;0.70;;
59310;SDS011;45078;51.654;21.250;2023-10-08T10:45:40;1.25;;;0.60;;
59310;SDS011;45078;51.654;21.250;2023-10-08T10:48:12;1.58;;;0.65;;
59310;SDS011;45078;51.654;21.250;2023-10-08T10:50:45;1.00;;;0.50;;
59310;SDS011;45078;51.654;21.250;2023-10-08T10:53:31;2.78;;;0.63;;
59310;SDS011;45078;51.654;21.250;2023-10-08T10:56:17;1.58;;;0.60;;
59310;SDS011;45078;51.654;21.250;2023-10-08T10:58:58;1.90;;;0.60;;
59310;SDS011;45078;51.654;21.250;2023-10-08T11:01:28;1.38;;;0.47;;
59310;SDS011;45078;51.654;21.250;2023-10-08T11:04:09;2.13;;;0.50;;
59310;SDS011;45078;51.654;21.250;2023-10-08T11:06:41;2.55;;;0.40;;
59310;SDS011;45078;51.654;21.250;2023-10-08T11:09:11;1.83;;;0.45;;
59310;SDS011;45078;51.654;21.250;2023-10-08T11:11:42;1.80;;;0.55;;
59310;SDS011;45078;51.654;21.250;2023-10-08T11:14:16;0.80;;;0.50;;
59310;SDS011;45078;51.654;21.250;2023-10-08T11:16:44;2.45;;;0.60;;
59310;SDS011;45078;51.654;21.250;2023-10-08T11:19:10;1.25;;;0.43;;
59310;SDS011;45078;51.654;21.250;2023-10-08T11:21:53;7.72;;;2.40;;
59310;SDS011;45078;51.654;21.250;2023-10-08T11:24:30;1.55;;;0.47;;
59310;SDS011;45078;51.654;21.250;2023-10-08T11:26:59;1.95;;;0.60;;
59310;SDS011;45078;51.654;21.250;2023-10-08T11:29:45;6.50;;;0.75;;
59310;SDS011;45078;51.654;21.250;2023-10-08T11:32:12;1.15;;;0.50;;
59310;SDS011;45078;51.654;21.250;2023-10-08T11:34:42;0.55;;;0.35;;
59310;SDS011;45078;51.654;21.250;2023-10-08T11:37:14;4.53;;;0.60;;
59310;SDS011;45078;51.654;21.250;2023-10-08T11:39:51;0.90;;;0.40;;
59310;SDS011;45078;51.654;21.250;2023-10-08T11:42:18;1.00;;;0.50;;
59310;SDS011;45078;51.654;21.250;2023-10-08T11:44:53;3.65;;;0.68;;
59310;SDS011;45078;51.654;21.250;2023-10-08T11:47:19;3.40;;;0.70;;
59310;SDS011;45078;51.654;21.250;2023-10-08T11:49:50;0.88;;;0.40;;
59310;SDS011;45078;51.654;21.250;2023-10-08T11:52:22;1.40;;;0.55;;
59310;SDS011;45078;51.654;21.250;2023-10-08T11:54:48;1.27;;;0.47;;
59310;SDS011;45078;51.654;21.250;2023-10-08T11:57:17;3.30;;;0.70;;
59310;SDS011;45078;51.654;21.250;2023-10-08T11:59:46;2.50;;;0.50;;
59310;SDS011;45078;51.654;21.250;2023-10-08T12:02:12;1.25;;;0.52;;
59310;SDS011;45078;51.654;21.250;2023-10-08T12:04:42;1.05;;;0.60;;
59310;SDS011;45078;51.654;21.250;2023-10-08T12:07:10;2.30;;;0.68;;
59310;SDS011;45078;51.654;21.250;2023-10-08T12:09:36;0.93;;;0.50;;
59310;SDS011;45078;51.654;21.250;2023-10-08T12:12:05;1.52;;;0.60;;
59310;SDS011;45078;51.654;21.250;2023-10-08T12:14:34;1.08;;;0.40;;
59310;SDS011;45078;51.654;21.250;2023-10-08T12:17:02;1.77;;;0.50;;
59310;SDS011;45078;51.654;21.250;2023-10-08T12:19:36;1.52;;;0.55;;
59310;SDS011;45078;51.654;21.250;2023-10-08T12:22:05;1.00;;;0.50;;
59310;SDS011;45078;51.654;21.250;2023-10-08T12:24:33;1.77;;;0.60;;
59310;SDS011;45078;51.654;21.250;2023-10-08T12:26:59;1.25;;;0.80;;
59310;SDS011;45078;51.654;21.250;2023-10-08T12:29:24;1.60;;;0.60;;
59310;SDS011;45078;51.654;21.250;2023-10-08T12:31:51;1.20;;;0.55;;
59310;SDS011;45078;51.654;21.250;2023-10-08T12:34:18;1.10;;;0.50;;
59310;SDS011;45078;51.654;21.250;2023-10-08T12:36:44;2.67;;;0.60;;
59310;SDS011;45078;51.654;21.250;2023-10-08T12:39:13;2.13;;;0.60;;
59310;SDS011;45078;51.654;21.250;2023-10-08T12:41:42;2.15;;;0.60;;
59310;SDS011;45078;51.654;21.250;2023-10-08T12:44:09;0.95;;;0.50;;
59310;SDS011;45078;51.654;21.250;2023-10-08T12:46:36;1.40;;;0.55;;
59310;SDS011;45078;51.654;21.250;2023-10-08T12:49:02;1.00;;;0.50;;
59310;SDS011;45078;51.654;21.250;2023-10-08T12:51:28;1.73;;;0.60;;
59310;SDS011;45078;51.654;21.250;2023-10-08T12:53:58;1.58;;;0.50;;
59310;SDS011;45078;51.654;21.250;2023-10-08T12:56:29;0.70;;;0.50;;
59310;SDS011;45078;51.654;21.250;2023-10-08T12:59:01;1.50;;;0.50;;
59310;SDS011;45078;51.654;21.250;2023-10-08T13:01:32;1.80;;;0.50;;
59310;SDS011;45078;51.654;21.250;2023-10-08T13:04:00;1.40;;;0.60;;
59310;SDS011;45078;51.654;21.250;2023-10-08T13:06:27;1.30;;;0.60;;
59310;SDS011;45078;51.654;21.250;2023-10-08T13:08:56;0.80;;;0.50;;
59310;SDS011;45078;51.654;21.250;2023-10-08T13:11:27;3.17;;;0.47;;
59310;SDS011;45078;51.654;21.250;2023-10-08T13:13:59;1.80;;;0.70;;
59310;SDS011;45078;51.654;21.250;2023-10-08T13:16:25;2.95;;;0.77;;
59310;SDS011;45078;51.654;21.250;2023-10-08T13:18:56;1.65;;;0.73;;
59310;SDS011;45078;51.654;21.250;2023-10-08T13:21:23;2.28;;;0.70;;
59310;SDS011;45078;51.654;21.250;2023-10-08T13:23:50;0.80;;;0.52;;
59310;SDS011;45078;51.654;21.250;2023-10-08T13:26:16;1.05;;;0.43;;
59310;SDS011;45078;51.654;21.250;2023-10-08T13:28:43;0.68;;;0.47;;
59310;SDS011;45078;51.654;21.250;2023-10-08T13:31:09;2.92;;;0.70;;
59310;SDS011;45078;51.654;21.250;2023-10-08T13:33:36;2.60;;;0.82;;
59310;SDS011;45078;51.654;21.250;2023-10-08T13:36:07;1.83;;;0.70;;
59310;SDS011;45078;51.654;21.250;2023-10-08T13:38:38;2.08;;;0.65;;
59310;SDS011;45078;51.654;21.250;2023-10-08T13:41:06;2.38;;;0.57;;
59310;SDS011;45078;51.654;21.250;2023-10-08T13:43:40;1.70;;;0.52;;
59310;SDS011;45078;51.654;21.250;2023-10-08T13:46:10;4.55;;;0.60;;
59310;SDS011;45078;51.654;21.250;2023-10-08T13:48:40;2.25;;;0.63;;
59310;SDS011;45078;51.654;21.250;2023-10-08T13:51:11;1.15;;;0.73;;
59310;SDS011;45078;51.654;21.250;2023-10-08T13:53:48;1.17;;;0.47;;
59310;SDS011;45078;51.654;21.250;2023-10-08T13:56:17;1.67;;;0.70;;
59310;SDS011;45078;51.654;21.250;2023-10-08T13:58:45;2.65;;;0.82;;
59310;SDS011;45078;51.654;21.250;2023-10-08T14:01:14;1.38;;;0.60;;
59310;SDS011;45078;51.654;21.250;2023-10-08T14:03:45;1.02;;;0.47;;
59310;SDS011;45078;51.654;21.250;2023-10-08T14:06:12;2.78;;;0.63;;
59310;SDS011;45078;51.654;21.250;2023-10-08T14:08:39;2.50;;;0.63;;
59310;SDS011;45078;51.654;21.250;2023-10-08T14:11:04;1.25;;;0.50;;
59310;SDS011;45078;51.654;21.250;2023-10-08T14:13:30;4.43;;;1.45;;
59310;SDS011;45078;51.654;21.250;2023-10-08T14:16:00;3.78;;;1.48;;
59310;SDS011;45078;51.654;21.250;2023-10-08T14:18:33;2.38;;;0.85;;
59310;SDS011;45078;51.654;21.250;2023-10-08T14:21:09;5.45;;;0.98;;
59310;SDS011;45078;51.654;21.250;2023-10-08T14:23:38;5.57;;;1.10;;
59310;SDS011;45078;51.654;21.250;2023-10-08T14:26:10;1.65;;;0.88;;
59310;SDS011;45078;51.654;21.250;2023-10-08T14:28:36;1.90;;;0.85;;
59310;SDS011;45078;51.654;21.250;2023-10-08T14:31:06;1.05;;;0.50;;
59310;SDS011;45078;51.654;21.250;2023-10-08T14:33:32;1.17;;;0.60;;
59310;SDS011;45078;51.654;21.250;2023-10-08T14:36:07;2.75;;;0.70;;
59310;SDS011;45078;51.654;21.250;2023-10-08T14:38:52;1.45;;;0.50;;
59310;SDS011;45078;51.654;21.250;2023-10-08T14:41:36;2.00;;;0.50;;
59310;SDS011;45078;51.654;21.250;2023-10-08T14:44:20;6.15;;;0.80;;
59310;SDS011;45078;51.654;21.250;2023-10-08T14:46:46;1.65;;;0.70;;
59310;SDS011;45078;51.654;21.250;2023-10-08T14:49:12;1.77;;;0.70;;
59310;SDS011;45078;51.654;21.250;2023-10-08T14:51:38;1.20;;;0.70;;
59310;SDS011;45078;51.654;21.250;2023-10-08T14:54:05;1.85;;;0.77;;
59310;SDS011;45078;51.654;21.250;2023-10-08T14:56:32;1.67;;;0.85;;
59310;SDS011;45078;51.654;21.250;2023-10-08T14:59:00;1.38;;;0.70;;
59310;SDS011;45078;51.654;21.250;2023-10-08T15:01:26;2.72;;;0.80;;
59310;SDS011;45078;51.654;21.250;2023-10-08T15:03:53;1.15;;;0.60;;
59310;SDS011;45078;51.654;21.250;2023-10-08T15:06:18;2.60;;;1.00;;
59310;SDS011;45078;51.654;21.250;2023-10-08T15:08:45;1.45;;;0.80;;
59310;SDS011;45078;51.654;21.250;2023-10-08T15:11:11;3.25;;;0.80;;
59310;SDS011;45078;51.654;21.250;2023-10-08T15:13:37;1.27;;;0.68;;